Time;durP1;ratioP1;P1;durP2;ratioP2;P2;SDS_P1;SDS_P2;PMS_P1;PMS_P2;Temp;Humidity;BMP_temperature;BMP_pressure;BME280_temperature;BME280_humidity;BME280_pressure;Samples;Min_cycle;Max_cycle;Signal;HPM_P1;HPM_P2
2022/04/24 00:01:24;;;;;;;7.20;2.92;;;7.30;71.10;;;;;;4089196;28;20035;-84
2022/04/24 00:03:25;;;;;;;10.70;2.70;;;7.30;70.80;;;;;;4087068;28;20675;-84
2022/04/24 00:05:25;;;;;;;8.55;3.00;;;7.30;70.40;;;;;;4105222;28;20030;-84
2022/04/24 00:07:26;;;;;;;6.85;2.80;;;7.30;70.20;;;;;;4086150;28;20325;-85
2022/04/24 00:09:28;;;;;;;8.20;2.60;;;7.30;70.10;;;;;;4103807;28;20069;-86
2022/04/24 00:11:30;;;;;;;12.88;3.03;;;7.30;70.10;;;;;;4099533;28;20035;-85
2022/04/24 00:13:41;;;;;;;8.95;2.70;;;7.30;70.10;;;;;;4095869;28;20072;-84
2022/04/24 00:15:42;;;;;;;5.32;2.30;;;7.30;70.70;;;;;;4085624;28;20038;-84
2022/04/24 00:17:43;;;;;;;6.38;3.13;;;7.30;70.70;;;;;;4098041;28;20071;-86
2022/04/24 00:19:44;;;;;;;11.45;2.72;;;7.30;70.70;;;;;;4099289;28;20023;-86
2022/04/24 00:21:45;;;;;;;7.53;2.75;;;7.30;70.80;;;;;;4084133;28;20054;-82
2022/04/24 00:23:46;;;;;;;7.72;3.20;;;7.20;70.90;;;;;;4087153;28;20024;-85
2022/04/24 00:25:47;;;;;;;6.68;2.70;;;7.30;71.00;;;;;;4086178;28;20098;-83
2022/04/24 00:27:47;;;;;;;6.72;2.95;;;7.20;71.00;;;;;;4083781;28;20377;-85
2022/04/24 00:29:48;;;;;;;8.32;2.47;;;7.20;71.00;;;;;;4069613;28;20046;-85
2022/04/24 00:31:49;;;;;;;6.60;2.75;;;7.20;71.20;;;;;;4097664;28;20034;-84
2022/04/24 00:33:49;;;;;;;12.35;3.55;;;7.30;71.20;;;;;;4079552;28;20152;-85
2022/04/24 00:35:51;;;;;;;10.88;3.83;;;7.30;71.50;;;;;;4094821;28;20092;-84
2022/04/24 00:37:51;;;;;;;7.40;3.50;;;7.30;72.80;;;;;;4100290;28;20027;-83
2022/04/24 00:39:52;;;;;;;9.13;3.95;;;7.30;72.40;;;;;;4087558;28;20410;-84
2022/04/24 00:41:53;;;;;;;9.43;3.92;;;7.30;72.80;;;;;;4096064;28;20034;-83
2022/04/24 00:43:54;;;;;;;8.52;3.85;;;7.30;73.30;;;;;;4085525;28;20512;-84
2022/04/24 00:46:21;;;;;;;8.93;4.72;;;7.20;73.60;;;;;;4084913;28;20125;-84
2022/04/24 00:48:22;;;;;;;9.23;4.47;;;7.20;74.30;;;;;;4101374;28;20031;-83
2022/04/24 00:50:23;;;;;;;10.68;4.13;;;7.20;74.30;;;;;;4080511;28;20039;-84
2022/04/24 00:52:24;;;;;;;10.07;4.18;;;7.20;74.50;;;;;;4088193;28;20035;-83
2022/04/24 00:54:25;;;;;;;9.43;4.10;;;7.20;74.40;;;;;;4086478;28;20034;-84
2022/04/24 00:56:30;;;;;;;10.13;4.35;;;7.20;74.40;;;;;;4099280;28;20534;-84
2022/04/24 00:58:32;;;;;;;11.32;3.97;;;7.20;74.70;;;;;;4067920;29;20482;-85
2022/04/24 01:00:33;;;;;;;12.07;4.68;;;7.20;75.50;;;;;;4085456;28;20031;-84
2022/04/24 01:02:33;;;;;;;10.45;3.88;;;7.20;74.80;;;;;;4083433;28;20511;-85
2022/04/24 01:04:36;;;;;;;10.88;4.18;;;7.20;74.80;;;;;;4100811;28;20033;-83
2022/04/24 01:06:42;;;;;;;7.88;4.38;;;7.20;75.00;;;;;;4086650;28;21074;-83
2022/04/24 01:08:42;;;;;;;10.23;4.45;;;7.10;75.20;;;;;;4086893;28;20059;-83
2022/04/24 01:10:43;;;;;;;10.98;4.32;;;7.10;75.20;;;;;;4084280;28;20601;-83
2022/04/24 01:12:44;;;;;;;7.25;3.90;;;7.10;75.20;;;;;;4089879;28;20038;-85
2022/04/24 01:14:44;;;;;;;11.98;4.40;;;7.10;75.30;;;;;;4087894;28;20460;-84
2022/04/24 01:16:47;;;;;;;7.30;4.07;;;7.10;75.20;;;;;;4088256;28;20049;-83
2022/04/24 01:18:48;;;;;;;10.02;4.13;;;7.10;75.40;;;;;;4084480;28;20744;-85
2022/04/24 01:20:49;;;;;;;15.13;4.90;;;7.10;75.40;;;;;;4097893;28;20037;-83
2022/04/24 01:22:50;;;;;;;9.02;4.10;;;7.10;75.30;;;;;;4088100;28;20034;-83
2022/04/24 01:24:50;;;;;;;12.90;4.13;;;7.20;75.30;;;;;;4105460;28;20032;-84
2022/04/24 01:26:51;;;;;;;7.10;3.80;;;7.10;75.40;;;;;;4106140;28;20038;-84
2022/04/24 01:28:52;;;;;;;7.53;3.83;;;7.10;75.20;;;;;;4092774;28;20050;-85
2022/04/24 01:30:52;;;;;;;12.07;4.13;;;7.10;75.10;;;;;;4089266;28;20059;-84
2022/04/24 01:32:53;;;;;;;8.55;3.80;;;7.10;75.10;;;;;;4104629;28;20045;-84
2022/04/24 01:34:54;;;;;;;10.00;4.40;;;7.10;75.00;;;;;;4102492;28;20034;-83
2022/04/24 01:36:54;;;;;;;13.32;4.20;;;7.20;75.20;;;;;;4091751;28;20035;-83
2022/04/24 01:38:55;;;;;;;14.45;4.57;;;7.10;75.30;;;;;;4090607;28;20023;-85
2022/04/24 01:40:56;;;;;;;12.23;4.53;;;7.10;74.80;;;;;;4103583;28;20030;-83
2022/04/24 01:42:56;;;;;;;9.90;4.00;;;7.10;75.20;;;;;;4075359;29;20131;-84
2022/04/24 01:44:57;;;;;;;6.90;3.47;;;7.10;75.10;;;;;;4092291;28;20023;-83
2022/04/24 01:46:57;;;;;;;11.10;4.18;;;7.20;75.00;;;;;;4090859;28;20039;-85
2022/04/24 01:48:58;;;;;;;10.15;3.38;;;7.10;74.90;;;;;;4088980;28;20034;-84
2022/04/24 01:51:04;;;;;;;10.43;4.07;;;7.10;75.80;;;;;;4090528;28;20027;-83
2022/04/24 01:53:04;;;;;;;7.47;3.72;;;7.10;75.10;;;;;;4090519;28;20023;-83
2022/04/24 01:55:05;;;;;;;14.73;3.60;;;7.20;75.10;;;;;;4111933;28;20038;-84
2022/04/24 01:57:06;;;;;;;7.05;3.47;;;7.20;75.00;;;;;;4090077;28;20036;-85
2022/04/24 01:59:07;;;;;;;7.53;3.40;;;7.10;75.10;;;;;;4088642;28;20474;-83
2022/04/24 02:01:07;;;;;;;11.55;3.65;;;7.10;75.10;;;;;;4104173;28;20050;-83
2022/04/24 02:03:08;;;;;;;8.75;3.75;;;7.20;75.50;;;;;;4091678;28;20031;-83
2022/04/24 02:05:09;;;;;;;8.65;3.17;;;7.10;75.50;;;;;;4106139;28;20066;-84
2022/04/24 02:07:11;;;;;;;14.10;3.72;;;7.10;75.50;;;;;;4092839;28;20027;-83
2022/04/24 02:09:11;;;;;;;10.35;3.22;;;7.10;75.40;;;;;;4087707;28;20056;-83
2022/04/24 02:11:12;;;;;;;9.18;2.83;;;7.10;75.30;;;;;;4073281;29;20039;-83
2022/04/24 02:13:13;;;;;;;9.85;3.15;;;7.20;75.10;;;;;;4089129;28;20031;-85
2022/04/24 02:15:14;;;;;;;8.38;3.05;;;7.10;74.90;;;;;;4105244;28;20027;-84
2022/04/24 02:17:14;;;;;;;7.18;3.20;;;7.20;74.90;;;;;;4088173;28;20105;-83
2022/04/24 02:19:15;;;;;;;9.82;3.28;;;7.20;74.70;;;;;;4087811;28;20027;-84
2022/04/24 02:21:16;;;;;;;9.63;2.80;;;7.30;74.50;;;;;;4105234;28;20034;-85
2022/04/24 02:23:17;;;;;;;9.98;3.17;;;7.20;74.40;;;;;;4090975;28;20024;-83
2022/04/24 02:25:17;;;;;;;11.05;3.05;;;7.30;74.40;;;;;;4090212;28;20062;-85
2022/04/24 02:27:18;;;;;;;11.55;3.22;;;7.20;74.50;;;;;;4093333;28;20202;-83
2022/04/24 02:29:19;;;;;;;7.43;2.72;;;7.20;74.70;;;;;;4072800;29;20047;-83
2022/04/24 02:31:20;;;;;;;6.70;2.60;;;7.20;75.00;;;;;;4085846;28;20035;-84
2022/04/24 02:33:21;;;;;;;9.07;2.67;;;7.20;75.10;;;;;;4087914;28;20114;-83
2022/04/24 02:35:21;;;;;;;5.75;2.03;;;7.20;75.80;;;;;;4101351;28;20082;-84
2022/04/24 02:37:22;;;;;;;5.70;1.90;;;7.20;75.30;;;;;;4104565;28;20047;-84
2022/04/24 02:39:23;;;;;;;7.60;2.15;;;7.30;75.00;;;;;;4089930;28;20455;-83
2022/04/24 02:41:27;;;;;;;9.88;2.70;;;7.30;75.20;;;;;;4081879;28;20035;-84
2022/04/24 02:43:27;;;;;;;7.05;2.55;;;7.40;75.00;;;;;;4084765;28;20535;-85
2022/04/24 02:45:28;;;;;;;11.65;2.53;;;7.40;74.80;;;;;;4086620;28;20070;-85
2022/04/24 02:47:29;;;;;;;6.25;2.47;;;7.40;74.60;;;;;;4102579;28;20193;-85
2022/04/24 02:49:29;;;;;;;8.85;2.38;;;7.40;74.50;;;;;;4090824;28;20522;-85
2022/04/24 02:51:30;;;;;;;5.65;2.00;;;7.40;74.30;;;;;;4105725;28;20158;-84
2022/04/24 02:53:31;;;;;;;6.43;2.00;;;7.40;73.90;;;;;;4087872;28;20132;-85
2022/04/24 02:55:32;;;;;;;9.40;2.22;;;7.50;73.70;;;;;;4088266;28;20067;-84
2022/04/24 02:57:34;;;;;;;6.63;2.10;;;7.50;73.40;;;;;;4090842;28;20027;-85
2022/04/24 02:59:34;;;;;;;11.10;2.30;;;7.50;73.20;;;;;;4097276;28;20050;-84
2022/04/24 03:01:35;;;;;;;5.95;2.13;;;7.50;73.00;;;;;;4088873;28;20719;-83
2022/04/24 03:03:37;;;;;;;4.90;2.33;;;7.50;72.90;;;;;;4084011;28;20035;-84
2022/04/24 03:05:38;;;;;;;11.82;2.67;;;7.50;72.80;;;;;;4089433;28;20027;-85
2022/04/24 03:07:39;;;;;;;12.88;2.13;;;7.50;72.70;;;;;;4088185;28;20447;-83
2022/04/24 03:09:41;;;;;;;5.63;2.20;;;7.50;72.70;;;;;;4105409;28;20450;-85
2022/04/24 03:11:41;;;;;;;8.25;1.98;;;7.50;72.50;;;;;;4095001;28;20082;-83
2022/04/24 03:13:42;;;;;;;6.80;2.22;;;7.50;72.40;;;;;;4088755;28;20035;-85
2022/04/24 03:15:43;;;;;;;6.35;1.85;;;7.40;72.10;;;;;;4088679;28;20035;-83
2022/04/24 03:17:44;;;;;;;5.07;2.03;;;7.40;72.00;;;;;;4098782;28;20078;-83
2022/04/24 03:19:45;;;;;;;7.43;2.30;;;7.40;72.60;;;;;;4089440;28;20031;-83
2022/04/24 03:21:46;;;;;;;8.25;2.38;;;7.40;71.70;;;;;;4086921;28;20151;-83
2022/04/24 03:23:47;;;;;;;6.43;2.42;;;7.40;71.70;;;;;;4106750;28;20029;-83
2022/04/24 03:25:49;;;;;;;5.22;1.80;;;7.40;71.80;;;;;;4090276;28;21869;-84
2022/04/24 03:27:50;;;;;;;5.38;2.45;;;7.40;72.00;;;;;;4102391;28;20161;-84
2022/04/24 03:29:51;;;;;;;8.25;2.30;;;7.40;72.10;;;;;;4091894;28;20094;-85
2022/04/24 03:31:53;;;;;;;3.55;2.30;;;7.40;72.30;;;;;;4086816;28;20035;-83
2022/04/24 03:33:54;;;;;;;8.20;2.63;;;7.30;72.30;;;;;;4089499;28;20039;-84
2022/04/24 03:35:55;;;;;;;4.43;1.90;;;7.30;72.30;;;;;;4085332;28;20046;-82
2022/04/24 03:37:56;;;;;;;4.65;2.20;;;7.30;72.30;;;;;;4102963;28;20496;-83
2022/04/24 03:39:57;;;;;;;7.85;2.15;;;7.30;72.30;;;;;;4102893;28;20026;-83
2022/04/24 03:41:58;;;;;;;5.55;2.00;;;7.30;72.30;;;;;;4091939;28;20027;-84
2022/04/24 03:43:58;;;;;;;6.20;2.17;;;7.30;72.10;;;;;;4085922;28;21003;-83
2022/04/24 03:45:59;;;;;;;3.63;2.20;;;7.30;71.90;;;;;;4088331;28;20042;-83
2022/04/24 03:48:00;;;;;;;7.43;2.15;;;7.20;71.60;;;;;;4104182;28;20027;-84
2022/04/24 03:50:01;;;;;;;8.30;2.38;;;7.20;71.60;;;;;;4093026;28;20034;-84
2022/04/24 03:52:01;;;;;;;11.10;2.60;;;7.30;71.60;;;;;;4088536;28;20035;-84
2022/04/24 03:54:02;;;;;;;11.98;2.40;;;7.20;71.20;;;;;;4092126;28;20130;-84
2022/04/24 03:56:04;;;;;;;5.88;2.70;;;7.20;71.10;;;;;;4109204;28;20027;-84
2022/04/24 03:58:04;;;;;;;7.00;2.70;;;7.20;71.00;;;;;;4085569;28;20031;-84
2022/04/24 04:00:07;;;;;;;7.05;2.67;;;7.20;70.90;;;;;;4092609;28;20038;-84
2022/04/24 04:02:08;;;;;;;10.15;2.72;;;7.20;70.80;;;;;;4087693;28;20688;-84
2022/04/24 04:04:09;;;;;;;10.70;2.55;;;7.20;70.70;;;;;;4092902;28;20055;-85
2022/04/24 04:06:09;;;;;;;9.18;2.80;;;7.20;70.50;;;;;;4106684;28;20531;-84
2022/04/24 04:08:10;;;;;;;5.25;2.50;;;7.10;70.30;;;;;;4089043;28;20034;-84
2022/04/24 04:10:11;;;;;;;4.90;2.70;;;7.10;70.20;;;;;;4094629;28;20715;-84
2022/04/24 04:12:11;;;;;;;4.10;2.53;;;7.10;70.00;;;;;;4089641;28;20063;-84
2022/04/24 04:14:12;;;;;;;5.45;2.95;;;7.10;70.00;;;;;;4108592;28;20031;-84
2022/04/24 04:16:13;;;;;;;7.75;2.88;;;7.10;70.00;;;;;;4086496;28;20058;-84
2022/04/24 04:18:13;;;;;;;6.75;2.88;;;7.10;69.90;;;;;;4091604;28;20031;-84
2022/04/24 04:20:14;;;;;;;6.95;2.75;;;7.00;69.80;;;;;;4092921;28;20143;-84
2022/04/24 04:22:15;;;;;;;8.80;2.70;;;7.00;69.80;;;;;;4089024;28;20063;-84
2022/04/24 04:24:16;;;;;;;7.82;3.13;;;7.00;69.70;;;;;;4094563;28;20042;-84
2022/04/24 04:26:17;;;;;;;6.97;3.20;;;7.00;69.80;;;;;;4089591;28;20170;-85
2022/04/24 04:28:17;;;;;;;6.25;2.63;;;7.00;69.80;;;;;;4093465;28;20411;-84
2022/04/24 04:30:19;;;;;;;6.22;3.03;;;7.00;69.90;;;;;;4090653;28;20550;-84
2022/04/24 04:32:19;;;;;;;8.95;3.08;;;7.00;69.80;;;;;;4095012;28;20039;-84
2022/04/24 04:34:20;;;;;;;7.90;2.63;;;7.00;70.00;;;;;;4087564;28;20197;-85
2022/04/24 04:36:21;;;;;;;8.32;3.15;;;7.00;69.90;;;;;;4094624;28;20031;-85
2022/04/24 04:38:21;;;;;;;6.97;3.05;;;7.00;69.90;;;;;;4092283;28;20063;-84
2022/04/24 04:40:22;;;;;;;4.55;2.75;;;7.00;69.70;;;;;;4093102;28;20039;-85
2022/04/24 04:42:23;;;;;;;8.50;2.92;;;7.00;69.70;;;;;;4105195;28;20447;-84
2022/04/24 04:44:24;;;;;;;8.93;2.80;;;7.00;69.60;;;;;;4090531;28;20036;-84
2022/04/24 04:46:24;;;;;;;7.88;2.88;;;7.00;69.70;;;;;;4090810;28;20950;-84
2022/04/24 04:48:26;;;;;;;7.00;2.90;;;7.00;69.70;;;;;;4093101;28;20035;-84
2022/04/24 04:50:26;;;;;;;6.60;2.85;;;7.10;69.60;;;;;;4097733;28;20090;-85
2022/04/24 04:52:27;;;;;;;10.80;3.30;;;7.10;69.50;;;;;;4095030;28;20042;-84
2022/04/24 04:54:28;;;;;;;13.50;2.95;;;7.10;69.40;;;;;;4093902;28;20043;-84
2022/04/24 04:56:28;;;;;;;7.88;2.90;;;7.10;69.30;;;;;;4090507;28;20032;-84
2022/04/24 04:58:29;;;;;;;6.80;3.40;;;7.10;69.20;;;;;;4108499;28;20041;-83
2022/04/24 05:00:30;;;;;;;10.02;2.80;;;7.10;69.20;;;;;;4092774;28;20102;-84
2022/04/24 05:02:31;;;;;;;8.15;2.90;;;7.20;69.30;;;;;;4090064;28;20039;-84
2022/04/24 05:04:32;;;;;;;8.15;3.35;;;7.20;69.00;;;;;;4093380;28;20040;-82
2022/04/24 05:06:32;;;;;;;7.93;3.20;;;7.20;69.00;;;;;;4091271;28;20039;-84
2022/04/24 05:08:33;;;;;;;6.72;3.22;;;7.20;69.10;;;;;;4094258;28;20495;-84
2022/04/24 05:10:34;;;;;;;9.48;3.33;;;7.20;69.60;;;;;;4087259;28;20038;-83
2022/04/24 05:12:35;;;;;;;9.15;3.30;;;7.30;68.90;;;;;;4103329;28;20035;-83
2022/04/24 05:14:35;;;;;;;10.32;2.78;;;7.40;68.70;;;;;;4088079;28;22036;-83
2022/04/24 05:16:36;;;;;;;9.48;3.50;;;7.30;68.60;;;;;;4105445;28;20113;-83
2022/04/24 05:18:36;;;;;;;9.82;3.08;;;7.30;68.90;;;;;;4089716;28;20031;-83
2022/04/24 05:20:37;;;;;;;4.57;2.80;;;7.40;69.00;;;;;;4094495;28;20038;-84
2022/04/24 05:22:39;;;;;;;4.75;2.80;;;7.40;69.10;;;;;;4089932;28;20115;-84
2022/04/24 05:24:40;;;;;;;12.57;3.15;;;7.30;68.90;;;;;;4072352;29;20126;-84
2022/04/24 05:26:41;;;;;;;14.10;2.50;;;7.40;68.70;;;;;;4104557;28;20035;-84
2022/04/24 05:28:41;;;;;;;6.55;3.00;;;7.40;68.50;;;;;;4091502;28;20054;-85
2022/04/24 05:30:42;;;;;;;6.63;2.95;;;7.40;68.20;;;;;;4084444;28;20035;-83
2022/04/24 05:32:49;;;;;;;7.05;3.17;;;7.40;68.30;;;;;;4095775;28;20045;-83
2022/04/24 05:34:50;;;;;;;11.95;2.95;;;7.50;67.90;;;;;;4073296;28;20074;-85
2022/04/24 05:36:51;;;;;;;12.32;2.90;;;7.50;68.00;;;;;;4078411;28;20487;-84
2022/04/24 05:38:51;;;;;;;6.65;2.50;;;7.60;67.90;;;;;;4097352;28;20042;-84
2022/04/24 05:40:52;;;;;;;5.68;2.60;;;7.60;67.80;;;;;;4083814;28;20024;-85
2022/04/24 05:42:54;;;;;;;13.95;2.65;;;7.60;67.50;;;;;;4088287;28;20031;-85
2022/04/24 05:44:59;;;;;;;4.07;2.20;;;7.60;67.30;;;;;;4091698;28;20805;-85
2022/04/24 05:47:00;;;;;;;6.65;2.50;;;7.60;67.10;;;;;;4084088;28;20495;-84
2022/04/24 05:49:02;;;;;;;3.08;1.98;;;7.70;66.90;;;;;;4085158;28;20129;-84
2022/04/24 05:51:03;;;;;;;7.30;2.87;;;7.80;66.60;;;;;;4084715;28;20028;-84
2022/04/24 05:53:04;;;;;;;3.67;2.20;;;7.70;66.40;;;;;;4089141;28;20039;-85
2022/04/24 05:55:05;;;;;;;11.82;2.70;;;7.70;65.60;;;;;;4099439;28;20963;-84
2022/04/24 05:57:06;;;;;;;4.35;2.65;;;7.80;65.60;;;;;;4101629;28;20165;-85
2022/04/24 05:59:08;;;;;;;3.38;1.95;;;7.80;65.30;;;;;;4103653;28;20031;-84
2022/04/24 06:01:08;;;;;;;5.15;1.85;;;7.80;64.60;;;;;;4085305;28;20027;-84
2022/04/24 06:03:09;;;;;;;7.40;2.63;;;7.90;64.70;;;;;;4087673;28;20041;-84
2022/04/24 06:05:11;;;;;;;8.90;2.13;;;7.90;64.30;;;;;;4087621;28;20035;-83
2022/04/24 06:07:11;;;;;;;5.90;2.20;;;7.90;63.50;;;;;;4090808;28;20110;-84
2022/04/24 06:09:13;;;;;;;3.33;1.98;;;7.80;62.90;;;;;;4088336;28;20043;-84
2022/04/24 06:11:14;;;;;;;4.38;2.00;;;7.80;62.50;;;;;;4092563;28;20039;-85
2022/04/24 06:13:14;;;;;;;10.98;2.42;;;7.80;62.70;;;;;;4082343;28;20483;-85
2022/04/24 06:15:17;;;;;;;4.97;1.98;;;7.80;62.50;;;;;;4078787;28;20082;-85
2022/04/24 06:17:17;;;;;;;7.22;2.50;;;7.90;63.30;;;;;;4090946;28;20028;-86
2022/04/24 06:19:18;;;;;;;4.30;1.90;;;7.90;63.90;;;;;;4087757;28;20454;-86
2022/04/24 06:21:19;;;;;;;3.42;2.13;;;8.00;63.30;;;;;;4088184;28;20042;-85
2022/04/24 06:23:20;;;;;;;9.75;2.08;;;8.00;63.00;;;;;;4087227;28;20460;-85
2022/04/24 06:25:24;;;;;;;6.00;2.85;;;8.00;62.70;;;;;;4085612;28;20612;-85
2022/04/24 06:27:24;;;;;;;;;;;8.10;63.10;;;;;;4094408;28;20038;-85
2022/04/24 06:29:25;;;;;;;3.17;1.90;;;8.00;62.30;;;;;;4088380;28;19915;-85
2022/04/24 06:31:26;;;;;;;7.88;1.88;;;8.10;62.50;;;;;;4103236;28;20114;-85
2022/04/24 06:33:27;;;;;;;5.00;1.88;;;8.10;61.50;;;;;;4090885;28;20031;-86
2022/04/24 06:35:28;;;;;;;4.88;1.92;;;8.20;61.90;;;;;;4091778;28;20110;-85
2022/04/24 06:37:29;;;;;;;4.03;2.10;;;8.20;61.90;;;;;;4092526;28;20167;-85
2022/04/24 06:39:29;;;;;;;4.18;1.90;;;8.40;62.00;;;;;;4095859;28;20039;-86
2022/04/24 06:41:30;;;;;;;6.63;2.30;;;8.40;61.00;;;;;;4106057;28;20090;-84
2022/04/24 06:43:31;;;;;;;6.78;2.05;;;8.30;60.50;;;;;;4090152;28;20031;-86
2022/04/24 06:45:37;;;;;;;5.55;1.80;;;8.30;60.30;;;;;;4106268;28;20074;-85
2022/04/24 06:47:38;;;;;;;5.05;1.95;;;8.20;60.60;;;;;;4090510;28;20031;-86
2022/04/24 06:49:39;;;;;;;7.93;2.05;;;8.30;61.00;;;;;;4091485;28;20035;-85
2022/04/24 06:51:39;;;;;;;3.92;2.20;;;8.20;60.90;;;;;;4072974;29;20038;-84
2022/04/24 06:53:40;;;;;;;3.83;2.13;;;8.30;61.40;;;;;;4104050;28;20030;-85
2022/04/24 06:55:43;;;;;;;2.95;1.60;;;8.40;61.60;;;;;;4101760;28;20027;-86
2022/04/24 06:57:43;;;;;;;4.57;1.95;;;8.40;61.40;;;;;;4087411;28;20046;-86
2022/04/24 06:59:44;;;;;;;4.28;1.92;;;8.40;60.80;;;;;;4082056;28;20654;-86
2022/04/24 07:01:45;;;;;;;4.18;1.60;;;8.40;60.90;;;;;;4088811;28;20074;-85
2022/04/24 07:03:46;;;;;;;5.15;1.83;;;8.40;60.70;;;;;;4092095;28;20677;-85
2022/04/24 07:05:47;;;;;;;5.03;1.67;;;8.50;61.10;;;;;;4082405;28;20050;-88
2022/04/24 07:07:48;;;;;;;2.45;1.80;;;8.40;59.70;;;;;;4092670;28;20885;-85
2022/04/24 07:09:49;;;;;;;3.30;1.92;;;8.50;59.90;;;;;;4088258;28;20058;-86
2022/04/24 07:11:49;;;;;;;2.72;1.50;;;8.60;60.30;;;;;;4088575;28;20039;-86
2022/04/24 07:13:50;;;;;;;5.28;1.67;;;8.60;60.60;;;;;;4087972;28;20063;-85
2022/04/24 07:15:54;;;;;;;5.60;1.73;;;8.70;59.80;;;;;;4088338;28;20455;-85
2022/04/24 07:17:56;;;;;;;7.90;2.08;;;8.70;59.80;;;;;;4085638;28;20075;-84
2022/04/24 07:19:56;;;;;;;3.10;1.90;;;8.70;59.10;;;;;;4091693;28;20023;-86
2022/04/24 07:21:58;;;;;;;2.10;1.63;;;8.90;59.40;;;;;;4083229;28;20032;-88
2022/04/24 07:23:59;;;;;;;8.13;1.65;;;8.90;59.50;;;;;;4092924;28;20043;-88
2022/04/24 07:26:00;;;;;;;3.35;1.75;;;9.00;59.30;;;;;;4093492;28;20086;-88
2022/04/24 07:28:00;;;;;;;7.40;2.03;;;9.00;58.80;;;;;;4093912;28;20082;-89
2022/04/24 07:30:01;;;;;;;3.45;2.00;;;9.10;58.40;;;;;;4105399;28;20031;-89
2022/04/24 07:32:02;;;;;;;7.38;1.90;;;9.10;58.60;;;;;;4086407;29;20221;-89
2022/04/24 07:34:03;;;;;;;4.85;1.80;;;9.00;57.70;;;;;;4092528;28;20043;-89
2022/04/24 07:36:04;;;;;;;5.15;1.80;;;9.00;57.80;;;;;;4092854;28;20031;-89
2022/04/24 07:38:05;;;;;;;4.13;1.88;;;9.00;57.80;;;;;;4097925;28;20066;-89
2022/04/24 07:40:08;;;;;;;3.15;1.70;;;9.10;58.50;;;;;;4092439;28;20515;-89
2022/04/24 07:42:08;;;;;;;5.83;2.17;;;9.00;58.70;;;;;;4093254;28;20027;-88
2022/04/24 07:44:09;;;;;;;4.22;2.10;;;9.10;58.70;;;;;;4092028;28;20381;-88
2022/04/24 07:46:10;;;;;;;2.45;1.55;;;9.20;58.50;;;;;;4093914;28;20050;-89
2022/04/24 07:48:11;;;;;;;8.18;2.35;;;9.30;58.40;;;;;;4092662;28;20038;-88
2022/04/24 07:50:14;;;;;;;3.75;1.80;;;9.30;58.90;;;;;;4093650;28;20031;-89
2022/04/24 07:52:15;;;;;;;4.38;1.90;;;9.30;57.80;;;;;;4093868;28;20038;-89
2022/04/24 07:54:16;;;;;;;4.00;1.88;;;9.20;57.80;;;;;;4090872;28;20126;-89
2022/04/24 07:56:16;;;;;;;6.80;1.67;;;9.20;58.00;;;;;;4103904;28;20034;-89
2022/04/24 07:58:17;;;;;;;4.63;2.05;;;9.30;58.60;;;;;;4093225;28;20046;-88
2022/04/24 08:00:21;;;;;;;6.50;1.92;;;9.30;59.20;;;;;;4103971;28;20406;-88
2022/04/24 08:02:22;;;;;;;8.93;2.17;;;9.30;58.20;;;;;;4093585;28;20035;-89
2022/04/24 08:04:22;;;;;;;3.60;1.90;;;9.40;58.40;;;;;;4093367;28;20035;-89
2022/04/24 08:06:23;;;;;;;4.97;1.90;;;9.50;58.60;;;;;;4091299;28;20054;-89
2022/04/24 08:08:24;;;;;;;7.15;1.95;;;9.60;58.00;;;;;;4092620;28;20581;-90
2022/04/24 08:10:27;;;;;;;4.20;1.98;;;9.60;57.80;;;;;;4093777;28;20572;-90
2022/04/24 08:12:28;;;;;;;5.95;1.80;;;9.70;57.10;;;;;;4090838;28;20023;-87
2022/04/24 08:14:29;;;;;;;6.22;1.80;;;9.70;57.10;;;;;;4092812;28;20039;-87
2022/04/24 08:16:30;;;;;;;6.28;1.95;;;9.80;57.50;;;;;;4088956;28;20070;-86
2022/04/24 08:18:31;;;;;;;7.07;1.90;;;9.90;58.10;;;;;;4090920;28;20427;-86
2022/04/24 08:20:32;;;;;;;3.78;1.77;;;10.00;58.00;;;;;;4086736;28;20034;-87
2022/04/24 08:22:41;;;;;;;4.10;2.20;;;9.90;56.80;;;;;;4091702;28;20714;-86
2022/04/24 08:24:42;;;;;;;4.57;1.90;;;9.90;57.90;;;;;;4090370;28;20027;-86
2022/04/24 08:26:42;;;;;;;4.72;2.00;;;10.00;57.70;;;;;;4088953;28;20061;-89
2022/04/24 08:28:43;;;;;;;1.92;1.70;;;10.10;57.00;;;;;;4110982;28;20038;-89
2022/04/24 08:30:46;;;;;;;4.22;1.80;;;10.10;56.60;;;;;;4089094;28;20143;-89
2022/04/24 08:32:47;;;;;;;3.13;1.40;;;10.10;56.80;;;;;;4105957;28;20383;-90
2022/04/24 08:34:48;;;;;;;3.85;1.52;;;10.10;56.50;;;;;;4091597;28;20031;-90
2022/04/24 08:36:49;;;;;;;7.00;2.22;;;10.20;56.90;;;;;;4091420;28;20053;-89
2022/04/24 08:38:50;;;;;;;4.25;1.95;;;10.20;57.10;;;;;;4096261;28;20039;-88
2022/04/24 08:40:53;;;;;;;5.95;1.92;;;10.20;56.80;;;;;;4105008;28;20133;-89
2022/04/24 08:42:55;;;;;;;3.70;2.10;;;10.30;57.40;;;;;;4091846;28;20035;-88
2022/04/24 08:44:56;;;;;;;3.88;1.75;;;10.40;57.20;;;;;;4100433;28;20372;-88
2022/04/24 08:46:57;;;;;;;6.88;2.28;;;10.40;56.60;;;;;;4089493;28;20063;-89
2022/04/24 08:48:59;;;;;;;3.47;1.75;;;10.40;56.50;;;;;;4094146;28;20058;-88
2022/04/24 08:51:02;;;;;;;5.82;1.90;;;10.40;56.70;;;;;;4093832;28;20034;-89
2022/04/24 08:53:04;;;;;;;8.20;2.15;;;10.40;56.10;;;;;;4091685;28;20035;-89
2022/04/24 08:55:05;;;;;;;6.05;2.15;;;10.50;56.80;;;;;;4090450;28;20492;-89
2022/04/24 08:57:05;;;;;;;3.97;1.95;;;10.60;57.00;;;;;;4107278;28;20037;-89
2022/04/24 08:59:06;;;;;;;5.40;1.77;;;10.60;55.90;;;;;;4084775;28;20027;-88
2022/04/24 09:01:07;;;;;;;7.78;2.63;;;10.60;55.30;;;;;;4088364;28;20055;-88
2022/04/24 09:03:07;;;;;;;10.60;1.92;;;10.50;56.40;;;;;;4089691;28;20019;-88
2022/04/24 09:05:08;;;;;;;9.40;1.73;;;10.60;56.30;;;;;;4104452;28;20023;-88
2022/04/24 09:07:11;;;;;;;3.92;2.00;;;10.60;55.80;;;;;;4108533;28;20046;-86
2022/04/24 09:09:11;;;;;;;4.10;1.83;;;10.60;56.40;;;;;;4104227;28;20503;-88
2022/04/24 09:11:13;;;;;;;7.40;2.00;;;10.60;54.80;;;;;;4091283;28;20039;-88
2022/04/24 09:13:25;;;;;;;4.90;2.25;;;10.60;55.60;;;;;;4088332;28;20147;-88
2022/04/24 09:15:27;;;;;;;7.07;2.20;;;10.60;56.00;;;;;;4091437;28;20039;-86
2022/04/24 09:17:34;;;;;;;4.22;2.03;;;10.50;55.50;;;;;;4090955;28;20110;-86
2022/04/24 09:19:37;;;;;;;4.15;1.95;;;10.60;56.00;;;;;;4090617;28;20401;-87
2022/04/24 09:21:38;;;;;;;6.93;2.00;;;10.60;55.40;;;;;;4092163;28;20396;-88
2022/04/24 09:23:40;;;;;;;4.93;2.40;;;10.70;57.00;;;;;;4106233;28;20035;-88
2022/04/24 09:25:41;;;;;;;4.73;1.80;;;10.60;54.90;;;;;;4105656;28;20026;-87
2022/04/24 09:27:42;;;;;;;7.32;2.25;;;10.70;55.00;;;;;;4092240;28;20113;-88
2022/04/24 09:29:55;;;;;;;6.30;1.80;;;10.60;55.70;;;;;;4091833;28;22691;-87
2022/04/24 09:31:55;;;;;;;6.35;2.38;;;10.60;55.10;;;;;;4082506;28;20689;-87
2022/04/24 09:33:56;;;;;;;4.07;2.55;;;10.60;56.00;;;;;;4101460;28;20059;-88
2022/04/24 09:35:57;;;;;;;5.22;2.03;;;10.50;55.80;;;;;;4093051;28;20109;-88
2022/04/24 09:38:17;;;;;;;9.40;2.00;;;10.70;56.30;;;;;;4093763;28;20027;-88
2022/04/24 09:40:19;;;;;;;4.82;1.83;;;10.70;55.80;;;;;;4087275;28;20042;-87
2022/04/24 09:42:20;;;;;;;4.68;2.00;;;10.70;55.90;;;;;;4103547;28;20069;-88
2022/04/24 09:44:21;;;;;;;5.32;2.25;;;10.80;56.60;;;;;;4095796;28;20573;-88
2022/04/24 09:46:26;;;;;;;8.20;2.20;;;10.70;55.60;;;;;;4108027;28;20027;-88
2022/04/24 09:48:26;;;;;;;6.03;1.85;;;10.70;55.20;;;;;;4094523;28;20031;-87
2022/04/24 09:50:30;;;;;;;7.90;1.83;;;10.80;56.50;;;;;;4095108;28;20054;-89
2022/04/24 09:52:31;;;;;;;5.13;1.67;;;10.70;55.70;;;;;;4096222;28;20031;-87
2022/04/24 09:54:32;;;;;;;7.30;2.00;;;10.70;56.10;;;;;;4098000;28;20035;-88
2022/04/24 09:56:34;;;;;;;7.60;2.15;;;10.70;56.10;;;;;;4097521;28;20031;-88
2022/04/24 09:58:37;;;;;;;3.10;1.80;;;10.60;55.80;;;;;;4106041;28;20174;-88
2022/04/24 10:00:38;;;;;;;4.50;2.20;;;10.70;55.70;;;;;;4105840;28;20482;-88
2022/04/24 10:02:41;;;;;;;4.43;1.80;;;10.70;55.00;;;;;;4106156;28;20143;-88
2022/04/24 10:04:42;;;;;;;4.68;1.85;;;10.50;55.20;;;;;;4092268;28;20038;-88
2022/04/24 10:06:44;;;;;;;5.18;1.90;;;10.60;54.50;;;;;;4095216;28;20081;-88
2022/04/24 10:08:45;;;;;;;10.85;1.90;;;10.50;54.40;;;;;;4097481;28;20035;-88
2022/04/24 10:10:45;;;;;;;6.05;2.10;;;10.50;55.70;;;;;;4107370;28;20050;-88
2022/04/24 10:12:49;;;;;;;6.78;2.28;;;10.50;55.70;;;;;;4106704;28;20408;-88
2022/04/24 10:15:12;;;;;;;5.95;1.83;;;10.50;55.60;;;;;;4108847;28;20182;-88
2022/04/24 10:17:27;;;;;;;4.00;1.70;;;10.40;55.20;;;;;;4107859;28;20027;-87
2022/04/24 10:19:46;;;;;;;4.65;1.95;;;10.40;56.60;;;;;;4096159;28;20038;-89
2022/04/24 10:22:24;;;;;;;4.20;2.20;;;10.50;56.00;;;;;;4088209;28;20038;-88
2022/04/24 10:24:36;;;;;;;4.20;1.88;;;10.50;54.90;;;;;;4092993;28;20392;-89
2022/04/24 10:26:37;;;;;;;7.55;2.08;;;10.50;55.10;;;;;;4093369;28;20119;-87
2022/04/24 10:28:40;;;;;;;5.15;1.83;;;10.50;55.10;;;;;;4104434;28;20165;-88
2022/04/24 10:30:40;;;;;;;8.82;2.08;;;10.50;55.20;;;;;;4092472;28;20027;-88
2022/04/24 10:32:44;;;;;;;5.63;1.90;;;10.40;54.50;;;;;;4106794;28;20510;-90
2022/04/24 10:34:45;;;;;;;6.95;2.38;;;10.40;55.10;;;;;;4107750;28;20026;-90
2022/04/24 10:36:59;;;;;;;3.13;1.90;;;10.40;55.70;;;;;;4094548;28;20051;-86
2022/04/24 10:39:00;;;;;;;4.93;2.13;;;10.40;56.00;;;;;;4108664;28;20027;-89